Agen-La Garenne Airport

Airport
ICAO code: 
LFBA
IATA Code: 
AGF
Summary
ICAO Region: 
EUR
Territory: 
Location: 
Agen, Aquitaine
Serving: 
Agen
Elevation: 
204 ft
Coordinates: 
Aerial View: 
44° 10' 28.996" N, 0° 35' 26.002" E
Metar
Observation
LFBA 210400Z AUTO 32004KT CAVOK 00/M02 Q1031
Station
Agen
Date/Time
2022-01-21 04:00:00
Wind direction
320°
Wind speed
04 kts
Lowest cloud amount
clouds and visibility OK
Temperature
0°C
Dew point
-2°C
Humidity
86%
QNH
1031 hPa
Weather condition
n/a

Runways

Designator Length Width Surface Rops
11/29 2165 30 ASP No/No
Airport map: 
Aerial View: 

SKYbrary Partners:

Safety knowledge contributed by: